Time;durP1;ratioP1;P1;durP2;ratioP2;P2;SDS_P1;SDS_P2;PMS_P1;PMS_P2;Temp;Humidity;BMP_temperature;BMP_pressure;BME280_temperature;BME280_humidity;BME280_pressure;Samples;Min_cycle;Max_cycle;Signal;HPM_P1;HPM_P2
2023/02/21 02:15:08;;;;;;;2.35;1.80;;;;;;;4.38;97.19;94983.41;5055951;28;20124;-75
2023/02/21 02:17:51;;;;;;;2.78;1.63;;;;;;;4.51;96.86;94983.16;5059457;28;20039;-75
2023/02/21 02:20:37;;;;;;;3.28;1.52;;;;;;;4.48;96.58;94968.03;5056649;28;20082;-75
2023/02/21 02:23:08;;;;;;;2.15;1.75;;;;;;;4.50;96.89;94963.59;5058287;28;20115;-74
2023/02/21 02:26:11;;;;;;;3.47;1.92;;;;;;;4.53;96.34;94964.13;5059885;28;20033;-74
2023/02/21 02:28:36;;;;;;;2.03;1.60;;;;;;;4.67;95.79;94966.31;5055180;28;20025;-75
2023/02/21 02:31:10;;;;;;;3.45;1.55;;;;;;;4.66;95.65;94974.13;5049639;28;20107;-75
2023/02/21 02:34:08;;;;;;;15.00;7.40;;;;;;;4.65;95.71;94975.09;5063745;28;20028;-75
2023/02/21 02:36:38;;;;;;;6.45;4.80;;;;;;;4.63;95.75;94972.63;5000884;28;20073;-74
2023/02/21 02:39:22;;;;;;;9.27;7.40;;;;;;;4.71;95.24;94972.78;5052617;28;20024;-74
2023/02/21 02:42:32;;;;;;;14.32;11.45;;;;;;;4.68;95.17;94967.13;5060535;28;20040;-74
2023/02/21 02:45:05;;;;;;;4.03;3.55;;;;;;;4.61;95.46;94966.03;5046543;28;20034;-74
2023/02/21 02:47:34;;;;;;;4.85;3.40;;;;;;;4.63;95.51;94982.91;5059515;28;20028;-74
2023/02/21 02:50:00;;;;;;;3.42;2.30;;;;;;;4.63;95.45;94975.22;5058888;28;20109;-75
2023/02/21 02:52:26;;;;;;;2.95;1.98;;;;;;;4.67;95.42;94976.56;5038673;28;20025;-74
2023/02/21 02:54:57;;;;;;;5.55;1.90;;;;;;;4.75;95.08;94974.13;5055225;28;20342;-74
2023/02/21 02:57:23;;;;;;;2.10;1.90;;;;;;;4.76;94.87;94982.63;5058741;28;20553;-74
2023/02/21 02:59:49;;;;;;;2.45;1.70;;;;;;;4.74;94.45;94975.09;5059376;28;20032;-74
2023/02/21 03:02:45;;;;;;;3.00;1.98;;;;;;;4.64;95.24;94983.72;5058571;28;20640;-74
2023/02/21 03:05:38;;;;;;;6.72;2.53;;;;;;;4.64;95.51;94979.41;5059660;28;20115;-74
2023/02/21 03:08:25;;;;;;;4.20;2.40;;;;;;;4.55;95.20;94974.25;5059095;28;20664;-74
2023/02/21 03:11:01;;;;;;;6.53;2.65;;;;;;;4.49;95.74;94980.75;5059598;28;20162;-74
2023/02/21 03:13:43;;;;;;;7.65;4.00;;;;;;;4.50;96.21;94968.72;5028488;28;20033;-74
2023/02/21 03:16:15;;;;;;;9.10;3.83;;;;;;;4.44;96.30;94970.06;5039112;28;20025;-74
2023/02/21 03:18:50;;;;;;;4.20;2.92;;;;;;;4.41;96.63;94980.59;5052818;28;20032;-74
2023/02/21 03:21:19;;;;;;;6.38;2.97;;;;;;;4.42;96.48;94971.97;5058823;28;20074;-74
2023/02/21 03:23:49;;;;;;;4.57;3.13;;;;;;;3.99;97.19;94976.56;5038416;28;20095;-74
2023/02/21 03:26:17;;;;;;;4.35;3.30;;;;;;;3.33;100.00;94986.41;5059117;28;20119;-74
2023/02/21 03:28:43;;;;;;;3.25;2.90;;;;;;;2.97;100.00;94979.16;5058445;28;20044;-74
2023/02/21 03:31:10;;;;;;;4.97;3.00;;;;;;;2.78;100.00;94994.38;5037848;28;20403;-74
2023/02/21 03:33:35;;;;;;;11.77;6.05;;;;;;;2.72;100.00;94989.75;5054306;28;20054;-74
2023/02/21 03:36:05;;;;;;;32.45;14.52;;;;;;;2.75;100.00;94992.06;5050134;28;20115;-74
2023/02/21 03:38:30;;;;;;;13.73;7.03;;;;;;;2.84;100.00;94993.88;5058022;28;20040;-74
2023/02/21 03:40:56;;;;;;;15.63;10.15;;;;;;;2.48;100.00;94995.88;5055459;28;20505;-74
2023/02/21 03:43:21;;;;;;;11.48;8.10;;;;;;;2.58;100.00;94989.09;5058218;28;20028;-74
2023/02/21 03:45:47;;;;;;;11.15;6.10;;;;;;;2.88;100.00;94988.41;5041123;28;20025;-74
2023/02/21 03:48:12;;;;;;;10.20;7.22;;;;;;;2.90;100.00;94994.19;5057912;28;20020;-74
2023/02/21 03:50:38;;;;;;;7.13;4.72;;;;;;;3.14;100.00;94994.78;5057425;28;20024;-75
2023/02/21 03:53:03;;;;;;;7.55;5.15;;;;;;;3.05;100.00;94998.06;5056866;28;20040;-75
2023/02/21 03:55:29;;;;;;;11.55;7.47;;;;;;;2.95;100.00;94992.09;5057945;28;20032;-75
2023/02/21 03:57:54;;;;;;;5.65;2.90;;;;;;;2.88;100.00;95000.38;5056814;28;20025;-74
2023/02/21 04:00:20;;;;;;;3.75;3.25;;;;;;;2.16;100.00;94966.91;5057482;28;20063;-74
2023/02/21 04:02:45;;;;;;;7.00;2.53;;;;;;;2.39;100.00;95008.56;5040213;28;20017;-75
2023/02/21 04:05:11;;;;;;;2.67;1.65;;;;;;;2.39;100.00;95011.09;5066674;28;20050;-75
2023/02/21 04:07:36;;;;;;;2.38;2.00;;;;;;;2.56;100.00;95006.31;5057050;28;20021;-75
2023/02/21 04:10:01;;;;;;;2.35;2.13;;;;;;;2.36;100.00;94996.84;5057030;28;20036;-75
2023/02/21 04:12:27;;;;;;;4.53;1.70;;;;;;;2.31;100.00;95011.69;5045305;28;20013;-75
2023/02/21 04:14:55;;;;;;;2.63;2.00;;;;;;;2.32;100.00;95002.28;5057350;28;20024;-75
2023/02/21 04:17:21;;;;;;;2.80;2.30;;;;;;;2.43;100.00;95013.31;5058123;28;20452;-74
2023/02/21 04:19:46;;;;;;;4.22;2.28;;;;;;;2.40;100.00;95002.53;5056310;28;20023;-75
2023/02/21 04:22:11;;;;;;;16.38;14.82;;;;;;;2.33;100.00;94999.63;5059366;28;20029;-75
2023/02/21 04:24:37;;;;;;;4.78;4.28;;;;;;;1.97;100.00;95005.84;5058157;28;20520;-74
2023/02/21 04:27:02;;;;;;;5.57;5.07;;;;;;;1.79;100.00;94973.25;5055733;28;20020;-74
2023/02/21 04:29:28;;;;;;;6.75;6.25;;;;;;;1.92;100.00;94995.19;5042421;28;20855;-74
2023/02/21 04:31:54;;;;;;;4.10;3.70;;;;;;;2.07;100.00;95004.22;5053259;28;20040;-74
2023/02/21 04:34:20;;;;;;;3.65;2.88;;;;;;;2.40;100.00;95003.34;5049482;28;20406;-74
2023/02/21 04:36:45;;;;;;;5.13;4.55;;;;;;;2.22;100.00;95001.38;5038546;28;20040;-74
2023/02/21 04:39:11;;;;;;;10.05;6.68;;;;;;;2.34;100.00;95014.03;5056711;28;20028;-74
2023/02/21 04:41:36;;;;;;;12.18;11.07;;;;;;;2.12;100.00;95001.28;5055324;28;20731;-74
2023/02/21 04:44:02;;;;;;;7.75;7.00;;;;;;;2.37;100.00;94997.66;5056438;28;20767;-74
2023/02/21 04:46:27;;;;;;;4.13;3.72;;;;;;;2.46;100.00;94999.47;5056443;28;20029;-74
2023/02/21 04:48:53;;;;;;;3.85;2.70;;;;;;;3.01;100.00;94996.72;5055995;28;20430;-74
2023/02/21 04:51:23;;;;;;;5.47;2.75;;;;;;;2.98;100.00;94996.13;5056215;28;20067;-74
2023/02/21 04:53:49;;;;;;;5.07;3.53;;;;;;;3.39;100.00;94991.03;5029120;28;20095;-74
2023/02/21 04:56:15;;;;;;;4.07;2.85;;;;;;;3.43;100.00;94996.69;5056629;28;20099;-74
2023/02/21 04:58:41;;;;;;;3.88;2.40;;;;;;;3.53;100.00;94987.31;5038755;28;20039;-75
2023/02/21 05:01:06;;;;;;;4.32;2.70;;;;;;;3.58;100.00;94993.69;5051791;28;20503;-74
2023/02/21 05:03:32;;;;;;;3.28;2.28;;;;;;;2.81;100.00;95001.78;5056861;28;20134;-74
2023/02/21 05:05:57;;;;;;;3.75;3.20;;;;;;;2.07;100.00;95003.38;5056686;28;20017;-74
2023/02/21 05:08:23;;;;;;;4.00;3.58;;;;;;;1.82;100.00;95001.09;5055847;28;20455;-74
2023/02/21 05:10:49;;;;;;;12.52;7.35;;;;;;;1.39;100.00;95004.31;5055590;28;20040;-74
2023/02/21 05:13:15;;;;;;;58.70;36.20;;;;;;;1.83;100.00;94993.31;5072722;28;20021;-74
2023/02/21 05:15:40;;;;;;;30.42;22.85;;;;;;;1.96;100.00;94988.88;5050165;28;20047;-73
2023/02/21 05:18:06;;;;;;;25.75;21.85;;;;;;;2.27;100.00;94995.00;5073296;28;20028;-74
2023/02/21 05:20:31;;;;;;;24.75;20.80;;;;;;;2.54;100.00;94994.56;5056953;28;20032;-74
2023/02/21 05:22:57;;;;;;;10.82;9.90;;;;;;;2.60;100.00;94989.78;5076641;28;20064;-74
2023/02/21 05:25:22;;;;;;;5.18;4.60;;;;;;;2.57;100.00;94992.56;5059192;28;20032;-74
2023/02/21 05:27:49;;;;;;;5.10;3.63;;;;;;;2.69;100.00;94997.66;5058322;28;20572;-74
2023/02/21 05:30:17;;;;;;;2.90;2.30;;;;;;;3.19;100.00;94992.66;5059821;28;20032;-74
2023/02/21 05:32:42;;;;;;;13.00;6.85;;;;;;;3.29;100.00;94995.25;5045495;28;20120;-74
2023/02/21 05:35:09;;;;;;;7.05;5.63;;;;;;;3.42;100.00;95001.00;5045533;28;20032;-74
2023/02/21 05:37:35;;;;;;;5.07;3.80;;;;;;;3.52;100.00;95001.88;5058159;28;20098;-74
2023/02/21 05:40:00;;;;;;;4.07;2.60;;;;;;;3.47;100.00;94998.84;5060005;28;20021;-75
2023/02/21 05:42:27;;;;;;;18.48;12.57;;;;;;;3.23;100.00;94988.09;5075870;28;20539;-75
2023/02/21 05:44:52;;;;;;;6.88;5.60;;;;;;;3.08;100.00;95002.13;5059882;28;20074;-75
2023/02/21 05:47:18;;;;;;;12.25;6.45;;;;;;;3.37;100.00;94994.66;5076165;28;20032;-74
2023/02/21 05:49:43;;;;;;;8.40;6.15;;;;;;;5.95;93.93;94990.69;5059145;28;20024;-76
2023/02/21 05:52:13;;;;;;;12.95;8.90;;;;;;;7.99;79.20;94987.97;5076688;28;20577;-76
2023/02/21 05:54:39;;;;;;;7.65;5.38;;;;;;;9.77;62.68;94989.84;5058597;28;20064;-74
2023/02/21 05:57:04;;;;;;;4.45;3.10;;;;;;;7.81;69.32;94986.25;5059252;28;20073;-76
2023/02/21 05:59:30;;;;;;;7.22;3.60;;;;;;;8.51;67.72;94984.31;5058937;28;20386;-74
2023/02/21 06:01:56;;;;;;;4.93;3.90;;;;;;;8.67;65.58;94971.44;5056751;28;20392;-76
2023/02/21 06:04:22;;;;;;;6.20;4.10;;;;;;;7.47;72.83;94989.75;5057173;28;20036;-75
2023/02/21 06:06:48;;;;;;;6.90;4.57;;;;;;;10.11;59.36;94986.22;5070491;28;20470;-76
2023/02/21 06:09:14;;;;;;;12.63;10.68;;;;;;;11.62;53.81;94980.25;5069995;28;20028;-74
2023/02/21 06:11:39;;;;;;;10.23;8.63;;;;;;;13.74;46.68;94978.16;5069417;28;20108;-77
2023/02/21 06:14:08;;;;;;;5.40;3.70;;;;;;;14.97;43.22;94986.00;5072360;28;20052;-77
2023/02/21 06:16:35;;;;;;;6.17;3.60;;;;;;;13.68;45.30;94989.31;5046929;28;20021;-74
2023/02/21 06:19:01;;;;;;;5.43;3.83;;;;;;;10.90;50.84;94994.59;5055648;28;20285;-76
2023/02/21 06:21:26;;;;;;;7.38;6.68;;;;;;;8.34;61.56;95000.72;5057569;28;20025;-77
2023/02/21 06:23:52;;;;;;;7.05;5.82;;;;;;;7.29;70.51;95011.19;5055706;28;20035;-76
2023/02/21 06:26:18;;;;;;;8.18;4.32;;;;;;;7.27;71.36;95017.44;5056443;28;20027;-75
2023/02/21 06:28:44;;;;;;;4.20;2.72;;;;;;;7.09;72.56;95024.38;5064415;28;20025;-76
2023/02/21 06:31:09;;;;;;;4.97;3.70;;;;;;;7.62;74.79;95032.03;5068479;28;20032;-76
2023/02/21 06:33:35;;;;;;;21.35;4.82;;;;;;;10.12;58.48;95021.44;5067807;28;20037;-76
2023/02/21 06:36:10;;;;;;;9.40;7.40;;;;;;;10.15;57.64;95018.56;5058067;28;20102;-76
2023/02/21 06:38:35;;;;;;;6.97;5.38;;;;;;;10.66;56.78;95022.44;5061290;28;20028;-77
2023/02/21 06:41:05;;;;;;;9.15;4.10;;;;;;;12.11;52.09;95014.34;5048564;28;20025;-77
2023/02/21 06:43:31;;;;;;;9.20;5.68;;;;;;;14.56;46.52;95016.53;5046511;28;20200;-76
2023/02/21 06:45:56;;;;;;;10.40;5.55;;;;;;;15.53;42.67;95019.69;5075383;28;20020;-77
2023/02/21 06:48:21;;;;;;;6.35;5.10;;;;;;;16.43;40.38;95011.19;5057266;28;20049;-76
2023/02/21 06:50:47;;;;;;;4.60;3.65;;;;;;;15.71;41.71;95012.06;5068772;28;20062;-77
2023/02/21 06:53:12;;;;;;;4.28;2.50;;;;;;;15.74;39.95;95006.44;5062209;28;20526;-77
2023/02/21 06:55:38;;;;;;;5.35;4.03;;;;;;;17.90;38.52;95005.63;5056503;28;20040;-77
2023/02/21 06:58:04;;;;;;;6.80;5.00;;;;;;;19.54;35.55;95012.69;5039592;28;20029;-77
2023/02/21 07:00:29;;;;;;;5.40;3.80;;;;;;;18.73;35.78;94999.97;5056359;28;20028;-77
2023/02/21 07:02:55;;;;;;;4.63;3.45;;;;;;;19.14;34.62;95007.94;5040371;28;20111;-78
2023/02/21 07:05:22;;;;;;;5.18;3.40;;;;;;;18.88;35.56;95003.84;5073502;28;20081;-77
2023/02/21 07:07:47;;;;;;;3.55;2.88;;;;;;;19.49;34.27;95002.84;5051863;28;20032;-77
2023/02/21 07:10:13;;;;;;;5.32;3.00;;;;;;;19.37;34.02;94973.91;5056991;28;20067;-77
2023/02/21 07:12:38;;;;;;;4.28;3.25;;;;;;;19.96;33.38;95001.13;5054595;28;20094;-77
2023/02/21 07:15:05;;;;;;;3.83;2.30;;;;;;;21.10;32.41;94991.78;5057381;28;20078;-77
2023/02/21 07:17:31;;;;;;;3.65;2.65;;;;;;;21.85;30.73;94992.31;5073938;28;20034;-78
2023/02/21 07:19:56;;;;;;;4.18;2.20;;;;;;;21.71;30.98;94989.19;5056149;28;21075;-77
2023/02/21 07:22:25;;;;;;;4.22;2.40;;;;;;;21.59;31.19;94990.28;5058745;28;20470;-77
2023/02/21 07:24:54;;;;;;;4.30;2.28;;;;;;;21.32;31.92;94990.88;5057033;28;20024;-77
2023/02/21 07:27:20;;;;;;;2.85;1.98;;;;;;;22.86;29.61;95005.19;5056321;28;20131;-77
2023/02/21 07:29:49;;;;;;;2.80;2.40;;;;;;;23.86;28.85;94996.75;5040203;28;20123;-78
2023/02/21 07:32:15;;;;;;;2.17;1.88;;;;;;;24.44;27.30;95001.19;5056807;28;20541;-76
2023/02/21 07:34:41;;;;;;;9.15;8.27;;;;;;;23.29;28.18;94990.34;5066838;28;20115;-76
2023/02/21 07:37:06;;;;;;;5.28;4.45;;;;;;;24.05;27.92;94974.16;5054808;28;20131;-76
2023/02/21 07:39:32;;;;;;;3.83;3.47;;;;;;;24.54;27.25;94980.06;5059956;28;20032;-77
2023/02/21 07:41:57;;;;;;;4.10;2.20;;;;;;;23.99;27.48;94979.66;5045799;28;20475;-77
2023/02/21 07:44:23;;;;;;;3.90;2.08;;;;;;;23.93;27.80;94980.66;5049468;28;20029;-76
2023/02/21 07:46:48;;;;;;;6.07;2.10;;;;;;;22.44;28.97;94983.75;5045541;28;20176;-76
2023/02/21 07:49:13;;;;;;;2.72;2.45;;;;;;;21.36;31.01;94981.47;5055683;28;20054;-75
2023/02/21 07:51:39;;;;;;;4.70;3.80;;;;;;;20.94;31.64;94974.84;5043984;28;20028;-76
2023/02/21 07:54:04;;;;;;;2.47;2.08;;;;;;;20.16;32.19;94980.56;5054149;28;20032;-76
2023/02/21 07:56:30;;;;;;;2.95;2.15;;;;;;;21.91;30.54;94971.09;5050392;28;20043;-76
2023/02/21 07:58:55;;;;;;;3.70;2.10;;;;;;;24.19;28.21;94976.38;5048140;28;20163;-76
2023/02/21 08:01:23;;;;;;;4.07;2.30;;;;;;;25.43;27.14;94961.31;5052839;28;20505;-75
2023/02/21 08:03:48;;;;;;;2.42;2.08;;;;;;;23.49;27.89;94972.88;5042683;28;20040;-77
2023/02/21 08:06:14;;;;;;;4.28;2.05;;;;;;;20.32;32.59;94972.00;5050395;28;20028;-76
2023/02/21 08:08:39;;;;;;;4.53;2.38;;;;;;;17.89;36.20;94959.47;5052061;28;20062;-76
2023/02/21 08:11:05;;;;;;;3.28;2.20;;;;;;;17.54;36.05;94965.34;5056156;28;20398;-77
2023/02/21 08:13:30;;;;;;;5.47;2.20;;;;;;;18.21;36.31;94964.59;5048139;28;20029;-76
2023/02/21 08:15:56;;;;;;;3.05;2.30;;;;;;;18.70;35.82;94961.88;5023655;28;20024;-76
2023/02/21 08:18:23;;;;;;;2.40;2.00;;;;;;;19.18;35.44;94969.72;5052226;28;20029;-75
2023/02/21 08:20:58;;;;;;;5.47;2.33;;;;;;;19.13;35.55;94963.56;5035491;28;20444;-76
2023/02/21 08:23:24;;;;;;;2.42;2.22;;;;;;;22.78;30.71;94967.84;5053557;28;20054;-75
2023/02/21 08:25:49;;;;;;;7.63;2.47;;;;;;;24.59;28.48;94961.53;5054167;28;20502;-75
2023/02/21 08:28:15;;;;;;;4.32;2.42;;;;;;;22.92;29.52;94955.88;5066338;28;20028;-75
2023/02/21 08:30:40;;;;;;;4.50;2.47;;;;;;;23.77;28.50;94960.41;5043776;28;20032;-76
2023/02/21 08:33:06;;;;;;;2.63;2.28;;;;;;;20.67;31.91;94955.38;5049915;28;20048;-76
2023/02/21 08:35:32;;;;;;;3.72;2.80;;;;;;;19.58;33.83;94962.13;5055717;28;20036;-75
2023/02/21 08:38:02;;;;;;;7.95;2.75;;;;;;;19.56;34.43;94958.09;5060803;28;20023;-74
2023/02/21 08:40:29;;;;;;;3.38;2.80;;;;;;;20.13;33.82;94959.97;5057367;28;20028;-75
2023/02/21 08:42:58;;;;;;;9.52;2.90;;;;;;;20.82;34.04;94948.56;5047133;28;20040;-80
2023/02/21 08:45:25;;;;;;;4.95;2.78;;;;;;;21.42;32.19;94927.81;5052015;28;20120;-81
2023/02/21 08:47:51;;;;;;;6.00;2.70;;;;;;;21.26;31.96;94940.94;5063780;28;20047;-81
2023/02/21 08:50:17;;;;;;;4.90;2.75;;;;;;;21.34;32.46;94949.28;5053656;28;20032;-81
2023/02/21 08:52:47;;;;;;;3.35;2.80;;;;;;;21.00;32.56;94951.00;5052350;28;20040;-82
2023/02/21 08:55:12;;;;;;;6.75;3.55;;;;;;;20.77;33.63;94929.22;5049917;28;20030;-79
2023/02/21 08:57:38;;;;;;;4.93;3.05;;;;;;;21.69;33.32;94945.66;5054751;28;20047;-80
2023/02/21 09:00:11;;;;;;;15.30;4.13;;;;;;;21.48;32.97;94947.16;5054431;28;20474;-79
2023/02/21 09:02:39;;;;;;;5.85;3.17;;;;;;;21.58;32.04;94947.31;5056653;28;20039;-80
2023/02/21 09:05:11;;;;;;;3.20;2.90;;;;;;;20.07;33.30;94946.94;5038730;28;20570;-79
2023/02/21 09:07:37;;;;;;;3.97;2.90;;;;;;;20.18;33.43;94933.78;5048282;28;20032;-79
2023/02/21 09:10:03;;;;;;;3.63;3.10;;;;;;;22.69;30.12;94937.63;5037580;28;20044;-81
2023/02/21 09:12:29;;;;;;;4.88;3.00;;;;;;;21.00;32.23;94932.56;5037604;28;20028;-80
2023/02/21 09:14:54;;;;;;;3.85;3.10;;;;;;;21.13;32.10;94931.50;5054246;28;20039;-80
2023/02/21 09:17:20;;;;;;;4.53;3.63;;;;;;;19.54;34.30;94939.94;5054320;28;20028;-79
2023/02/21 09:19:45;;;;;;;4.38;3.13;;;;;;;19.16;35.02;94934.22;5055047;28;20021;-80
2023/02/21 09:22:10;;;;;;;4.47;2.63;;;;;;;22.73;30.55;94934.25;5027490;28;20461;-80
2023/02/21 09:24:37;;;;;;;4.78;3.00;;;;;;;23.99;28.87;94913.47;5050707;28;20047;-79
2023/02/21 09:27:03;;;;;;;3.80;2.90;;;;;;;23.67;29.71;94918.81;5035812;28;20033;-80
2023/02/21 09:29:30;;;;;;;3.20;2.90;;;;;;;22.48;30.09;94918.03;5048448;28;20650;-81
2023/02/21 09:31:56;;;;;;;3.08;2.72;;;;;;;21.83;31.07;94913.41;5069115;28;20039;-80
2023/02/21 09:34:21;;;;;;;5.15;3.45;;;;;;;21.02;32.88;94925.25;5054184;28;20426;-79
2023/02/21 09:36:48;;;;;;;5.18;3.42;;;;;;;20.49;33.01;94917.63;5051414;28;20040;-81
2023/02/21 09:39:13;;;;;;;3.67;2.60;;;;;;;19.81;34.19;94914.81;5049033;28;20466;-83
2023/02/21 09:41:42;;;;;;;6.05;3.20;;;;;;;20.40;33.91;94912.97;5048906;28;20020;-76
2023/02/21 09:44:18;;;;;;;;;;;;;;;20.73;33.27;94907.84;5067599;28;20921;-76
2023/02/21 09:46:45;;;;;;;3.80;3.50;;;;;;;20.06;33.51;94913.78;5031021;28;19913;-77
2023/02/21 09:49:17;;;;;;;7.88;3.58;;;;;;;22.00;31.65;94902.88;5053246;28;20119;-77
2023/02/21 09:51:43;;;;;;;5.65;3.55;;;;;;;21.19;32.16;94903.44;5040913;28;20025;-77
2023/02/21 09:54:38;;;;;;;6.28;3.83;;;;;;;21.23;31.39;94900.06;5046385;28;20118;-76
2023/02/21 09:57:08;;;;;;;5.60;3.58;;;;;;;20.14;33.55;94901.06;5036109;28;20226;-77
2023/02/21 09:59:34;;;;;;;7.25;3.45;;;;;;;20.34;33.87;94890.22;5062256;28;20723;-77
2023/02/21 10:02:28;;;;;;;4.63;3.17;;;;;;;22.16;30.97;94888.06;5052575;28;20025;-76
2023/02/21 10:05:07;;;;;;;7.40;3.30;;;;;;;20.95;32.46;94892.97;5056454;28;20416;-77
2023/02/21 10:07:51;;;;;;;5.43;3.00;;;;;;;20.44;32.06;94890.41;5056189;28;20063;-77
2023/02/21 10:10:28;;;;;;;6.15;3.17;;;;;;;20.44;33.75;94893.84;5056297;28;20430;-77
2023/02/21 10:13:06;;;;;;;4.65;2.67;;;;;;;19.44;35.26;94882.69;5057683;28;20040;-78
2023/02/21 10:15:37;;;;;;;6.78;3.25;;;;;;;20.42;33.52;94874.06;5056944;28;20078;-77
2023/02/21 10:18:32;;;;;;;3.17;2.75;;;;;;;20.18;33.08;94872.47;5056951;28;20119;-77
2023/02/21 10:21:01;;;;;;;5.60;2.47;;;;;;;20.10;33.01;94867.59;5052226;28;20644;-77
2023/02/21 10:23:30;;;;;;;5.03;2.92;;;;;;;20.26;33.83;94861.63;5057790;28;20418;-76
2023/02/21 10:26:01;;;;;;;;;;;;;;;19.49;34.75;94868.06;5063227;28;20036;-77
2023/02/21 10:28:27;;;;;;;4.65;2.75;;;;;;;19.51;34.83;94856.31;5068969;28;19916;-76
2023/02/21 10:30:57;;;;;;;6.28;2.88;;;;;;;18.13;36.21;94852.16;5044810;28;20433;-77
2023/02/21 10:33:23;;;;;;;5.35;2.97;;;;;;;17.71;36.90;94840.72;5035749;28;20703;-76
2023/02/21 10:35:48;;;;;;;6.13;3.22;;;;;;;17.67;36.90;94839.53;5049397;28;20578;-76
2023/02/21 10:38:19;;;;;;;6.90;3.90;;;;;;;17.03;37.85;94843.31;5058672;28;20028;-76
2023/02/21 10:41:01;;;;;;;8.13;3.25;;;;;;;17.44;38.42;94842.75;5062288;28;20578;-76
2023/02/21 10:43:36;;;;;;;7.13;2.80;;;;;;;17.34;38.30;94835.38;5055797;28;20028;-77
2023/02/21 10:46:08;;;;;;;5.18;2.60;;;;;;;17.03;38.21;94824.19;5059867;28;20028;-77
2023/02/21 10:48:37;;;;;;;7.15;3.22;;;;;;;17.37;38.73;94827.09;5054538;28;20025;-76
2023/02/21 10:51:30;;;;;;;5.10;3.50;;;;;;;17.69;38.07;94813.94;5038879;28;20037;-77
2023/02/21 10:54:19;;;;;;;3.53;3.20;;;;;;;16.28;39.07;94813.56;5053965;28;20052;-76
2023/02/21 10:56:46;;;;;;;7.90;3.10;;;;;;;16.41;40.16;94804.84;5056935;28;20024;-76
2023/02/21 10:59:24;;;;;;;4.88;3.05;;;;;;;16.78;38.78;94800.63;5069199;28;20132;-76
2023/02/21 11:01:50;;;;;;;18.02;3.40;;;;;;;16.21;40.37;94799.72;5063501;28;20033;-77
2023/02/21 11:04:18;;;;;;;4.95;2.90;;;;;;;15.63;41.68;94798.97;5058226;28;20036;-76
2023/02/21 11:06:46;;;;;;;3.63;2.53;;;;;;;15.91;41.06;94779.56;5059017;28;20031;-76
2023/02/21 11:09:39;;;;;;;4.68;3.15;;;;;;;15.58;42.14;94782.28;5056989;28;20357;-76
2023/02/21 11:12:15;;;;;;;5.30;2.45;;;;;;;16.15;40.87;94771.81;5057622;28;20036;-77
2023/02/21 11:14:41;;;;;;;4.57;2.80;;;;;;;16.08;41.27;94772.88;5055894;28;20130;-76
2023/02/21 11:17:14;;;;;;;4.78;2.70;;;;;;;16.37;40.57;94761.06;5056263;28;20028;-76
2023/02/21 11:19:49;;;;;;;5.05;2.80;;;;;;;16.94;39.22;94768.69;5049587;28;20045;-76
2023/02/21 11:22:18;;;;;;;3.95;3.10;;;;;;;16.85;40.13;94760.34;5055992;28;20029;-76
2023/02/21 11:24:44;;;;;;;;;;;;;;;16.65;38.75;94753.63;5050395;28;20074;-77
2023/02/21 11:27:11;;;;;;;3.85;2.75;;;;;;;17.07;38.45;94741.63;5055550;28;19936;-76
2023/02/21 11:29:41;;;;;;;3.83;2.75;;;;;;;16.90;38.19;94736.13;5055805;28;20478;-76
2023/02/21 11:32:23;;;;;;;8.23;3.22;;;;;;;16.62;38.52;94731.34;5056399;28;20023;-77
2023/02/21 11:34:49;;;;;;;5.00;2.80;;;;;;;17.00;37.87;94719.94;5046374;28;20060;-76
2023/02/21 11:37:15;;;;;;;7.22;2.92;;;;;;;16.78;38.91;94722.97;5039130;28;20053;-76
2023/02/21 11:39:40;;;;;;;7.97;2.60;;;;;;;16.55;38.46;94730.56;5050287;28;20036;-75
2023/02/21 11:42:31;;;;;;;6.78;3.10;;;;;;;16.04;39.09;94725.47;5057887;28;21341;-76
2023/02/21 11:45:14;;;;;;;5.13;2.55;;;;;;;16.10;39.09;94708.94;5053783;28;20044;-76
2023/02/21 11:47:46;;;;;;;5.70;2.90;;;;;;;16.07;39.02;94711.16;5054097;28;20029;-76
2023/02/21 11:50:23;;;;;;;8.23;3.00;;;;;;;16.03;38.52;94700.34;5054725;28;20028;-76
2023/02/21 11:52:51;;;;;;;4.07;2.85;;;;;;;16.21;38.09;94697.03;5056936;28;20025;-76
2023/02/21 11:55:19;;;;;;;4.20;2.55;;;;;;;16.47;38.18;94693.41;5056364;28;20466;-77
2023/02/21 11:58:06;;;;;;;4.80;2.90;;;;;;;16.35;38.30;94693.28;5056342;28;20024;-77
2023/02/21 12:00:42;;;;;;;3.55;2.92;;;;;;;16.51;38.31;94677.06;5052673;28;20119;-77
2023/02/21 12:03:38;;;;;;;4.85;2.60;;;;;;;17.04;38.71;94672.19;5053641;28;20045;-76
2023/02/21 12:06:45;;;;;;;8.98;2.65;;;;;;;16.69;39.15;94665.91;5057249;28;20017;-76
2023/02/21 12:09:32;;;;;;;4.20;3.20;;;;;;;16.71;39.77;94664.66;5054688;28;20078;-77
2023/02/21 12:12:09;;;;;;;3.78;2.92;;;;;;;16.69;38.76;94660.66;5056497;28;20505;-77
2023/02/21 12:15:06;;;;;;;6.68;3.13;;;;;;;16.68;38.88;94641.56;5053412;28;20016;-76
2023/02/21 12:17:57;;;;;;;5.60;2.50;;;;;;;16.57;39.40;94647.47;5011956;28;20048;-76
2023/02/21 12:20:55;;;;;;;3.63;2.47;;;;;;;16.78;38.55;94628.78;5056052;28;20034;-75
2023/02/21 12:23:43;;;;;;;2.15;1.25;;;;;;;16.92;36.32;94642.50;5042575;28;20060;-77
2023/02/21 12:26:20;;;;;;;1.20;0.80;;;;;;;16.82;35.61;94631.78;5054854;28;20032;-77
2023/02/21 12:29:04;;;;;;;1.02;0.93;;;;;;;16.81;35.51;94630.16;5055186;28;20282;-77
2023/02/21 12:31:36;;;;;;;2.10;0.90;;;;;;;17.30;35.24;94622.19;5049430;28;20073;-76
2023/02/21 12:34:28;;;;;;;2.35;1.10;;;;;;;17.84;35.35;94617.84;5059080;28;20028;-77
2023/02/21 12:37:03;;;;;;;1.42;0.90;;;;;;;18.18;34.00;94606.66;5053598;28;20135;-77
2023/02/21 12:39:44;;;;;;;1.27;0.90;;;;;;;18.14;34.12;94600.25;5064021;28;20890;-77
2023/02/21 12:42:45;;;;;;;1.98;0.90;;;;;;;18.13;34.67;94603.13;5048943;28;20173;-78
2023/02/21 12:45:29;;;;;;;1.95;1.08;;;;;;;18.33;33.97;94599.13;5045965;28;20510;-77
2023/02/21 12:47:58;;;;;;;5.13;1.20;;;;;;;18.20;34.19;94591.50;5057571;28;20036;-78
2023/02/21 12:50:29;;;;;;;1.20;1.10;;;;;;;18.05;33.67;94579.84;5054817;28;20596;-76
2023/02/21 12:53:15;;;;;;;2.70;1.23;;;;;;;18.18;33.83;94596.16;5056285;28;20028;-77
2023/02/21 12:55:51;;;;;;;1.23;0.80;;;;;;;18.15;33.93;94591.38;5055427;28;20490;-77
2023/02/21 12:58:37;;;;;;;1.75;0.77;;;;;;;18.32;34.06;94588.88;5055054;28;20021;-76
2023/02/21 13:01:25;;;;;;;1.42;1.25;;;;;;;18.38;34.28;94588.78;5041412;28;20041;-76
2023/02/21 13:03:59;;;;;;;3.08;1.08;;;;;;;18.44;34.20;94580.00;5034791;28;20403;-77
2023/02/21 13:06:46;;;;;;;5.60;1.10;;;;;;;18.35;33.42;94583.19;5053769;28;20142;-76
2023/02/21 13:09:23;;;;;;;1.15;0.98;;;;;;;18.53;33.60;94580.47;5043063;28;20036;-76
2023/02/21 13:12:22;;;;;;;2.17;0.90;;;;;;;18.37;33.04;94575.88;5054949;28;20025;-78
2023/02/21 13:14:59;;;;;;;1.38;0.90;;;;;;;18.28;33.51;94572.81;5046171;28;20079;-76
2023/02/21 13:17:26;;;;;;;2.30;0.80;;;;;;;18.23;33.43;94569.28;5040510;28;20104;-76
2023/02/21 13:20:05;;;;;;;1.85;0.98;;;;;;;18.31;33.50;94572.34;5030223;28;20049;-78
2023/02/21 13:25:44;;;;;;;1.15;0.80;;;;;;;18.33;33.55;94562.41;5056191;28;20035;-76
2023/02/21 13:28:16;;;;;;;1.40;1.10;;;;;;;18.32;33.81;94560.84;5053329;28;20581;-75
2023/02/21 13:30:47;;;;;;;1.52;1.20;;;;;;;18.44;33.89;94564.25;5053536;28;20549;-77
2023/02/21 13:33:43;;;;;;;1.90;1.00;;;;;;;18.34;33.87;94555.34;5039201;28;20512;-82
2023/02/21 13:36:20;;;;;;;1.38;1.00;;;;;;;18.32;34.22;94558.22;5049232;28;20589;-77
2023/02/21 13:38:46;;;;;;;1.83;1.52;;;;;;;18.25;34.63;94562.78;5051254;28;20021;-77
2023/02/21 13:41:15;;;;;;;2.58;1.20;;;;;;;18.16;33.49;94561.53;5055280;28;20024;-76
2023/02/21 13:43:51;;;;;;;1.33;1.23;;;;;;;18.09;34.00;94554.78;5052762;28;20043;-76
2023/02/21 13:46:23;;;;;;;2.88;1.30;;;;;;;18.15;34.37;94562.53;5052559;28;20104;-76
2023/02/21 13:49:26;;;;;;;2.25;1.35;;;;;;;17.98;33.90;94561.59;5060637;28;20112;-76
2023/02/21 13:51:54;;;;;;;5.22;1.40;;;;;;;18.09;34.07;94544.28;5058601;28;20124;-76
2023/02/21 13:54:22;;;;;;;1.87;1.10;;;;;;;17.97;33.64;94546.09;5058846;28;20037;-76
2023/02/21 13:56:48;;;;;;;2.08;1.40;;;;;;;17.97;34.40;94546.91;5040199;28;20040;-75
2023/02/21 13:59:22;;;;;;;2.70;1.40;;;;;;;18.07;34.24;94552.41;5060304;28;20020;-77
2023/02/21 14:01:49;;;;;;;3.45;1.33;;;;;;;17.93;34.41;94540.50;5060858;28;20449;-77
2023/02/21 14:04:48;;;;;;;5.63;1.48;;;;;;;17.96;34.73;94544.50;5068152;28;20027;-75
2023/02/21 14:07:14;;;;;;;2.35;1.10;;;;;;;18.16;34.20;94547.59;5072038;28;20161;-76
2023/02/21 14:09:40;;;;;;;2.78;1.02;;;;;;;18.02;34.88;94538.34;5074723;28;20032;-75